sensor_id;sensor_type;location;lat;lon;timestamp;P1;durP1;ratioP1;P2;durP2;ratioP2
12770;SDS011;6449;47.666;9.160;2023-05-16T00:01:03;6.77;;;6.17;;
12770;SDS011;6449;47.666;9.160;2023-05-16T00:05:57;6.37;;;5.80;;
12770;SDS011;6449;47.666;9.160;2023-05-16T00:10:52;6.97;;;6.27;;
12770;SDS011;6449;47.666;9.160;2023-05-16T00:15:47;6.57;;;5.93;;
12770;SDS011;6449;47.666;9.160;2023-05-16T00:20:42;7.47;;;6.30;;
12770;SDS011;6449;47.666;9.160;2023-05-16T00:25:35;6.27;;;5.67;;
12770;SDS011;6449;47.666;9.160;2023-05-16T00:30:28;7.27;;;6.57;;
12770;SDS011;6449;47.666;9.160;2023-05-16T00:35:23;6.33;;;5.70;;
12770;SDS011;6449;47.666;9.160;2023-05-16T00:40:17;7.60;;;6.37;;
12770;SDS011;6449;47.666;9.160;2023-05-16T00:45:11;6.80;;;6.20;;
12770;SDS011;6449;47.666;9.160;2023-05-16T00:50:05;7.80;;;6.47;;
12770;SDS011;6449;47.666;9.160;2023-05-16T00:55:00;6.27;;;5.67;;
12770;SDS011;6449;47.666;9.160;2023-05-16T00:59:54;7.57;;;6.47;;
12770;SDS011;6449;47.666;9.160;2023-05-16T01:04:48;7.47;;;5.93;;
12770;SDS011;6449;47.666;9.160;2023-05-16T01:09:42;6.23;;;5.60;;
12770;SDS011;6449;47.666;9.160;2023-05-16T01:14:38;5.90;;;5.27;;
12770;SDS011;6449;47.666;9.160;2023-05-16T01:19:46;6.37;;;5.77;;
12770;SDS011;6449;47.666;9.160;2023-05-16T01:24:55;6.87;;;6.17;;
12770;SDS011;6449;47.666;9.160;2023-05-16T01:30:11;6.20;;;5.60;;
12770;SDS011;6449;47.666;9.160;2023-05-16T01:35:08;6.33;;;5.73;;
12770;SDS011;6449;47.666;9.160;2023-05-16T01:40:10;6.93;;;5.77;;
12770;SDS011;6449;47.666;9.160;2023-05-16T01:45:13;8.30;;;6.00;;
12770;SDS011;6449;47.666;9.160;2023-05-16T01:50:15;10.30;;;6.00;;
12770;SDS011;6449;47.666;9.160;2023-05-16T01:55:17;6.27;;;5.67;;
12770;SDS011;6449;47.666;9.160;2023-05-16T02:00:32;7.47;;;5.60;;
12770;SDS011;6449;47.666;9.160;2023-05-16T02:05:25;5.80;;;5.27;;
12770;SDS011;6449;47.666;9.160;2023-05-16T02:10:19;5.80;;;5.20;;
12770;SDS011;6449;47.666;9.160;2023-05-16T02:15:13;7.00;;;5.43;;
12770;SDS011;6449;47.666;9.160;2023-05-16T02:20:08;6.30;;;5.70;;
12770;SDS011;6449;47.666;9.160;2023-05-16T02:25:03;6.63;;;5.87;;
12770;SDS011;6449;47.666;9.160;2023-05-16T02:29:58;6.70;;;6.00;;
12770;SDS011;6449;47.666;9.160;2023-05-16T02:34:51;6.20;;;5.60;;
12770;SDS011;6449;47.666;9.160;2023-05-16T02:39:46;6.43;;;5.83;;
12770;SDS011;6449;47.666;9.160;2023-05-16T02:44:39;8.70;;;6.30;;
12770;SDS011;6449;47.666;9.160;2023-05-16T02:49:33;6.40;;;5.80;;
12770;SDS011;6449;47.666;9.160;2023-05-16T02:54:26;6.00;;;5.50;;
12770;SDS011;6449;47.666;9.160;2023-05-16T02:59:21;5.93;;;5.33;;
12770;SDS011;6449;47.666;9.160;2023-05-16T03:04:14;5.80;;;5.23;;
12770;SDS011;6449;47.666;9.160;2023-05-16T03:09:07;5.40;;;4.90;;
12770;SDS011;6449;47.666;9.160;2023-05-16T03:14:01;5.80;;;4.87;;
12770;SDS011;6449;47.666;9.160;2023-05-16T03:18:56;5.07;;;4.57;;
12770;SDS011;6449;47.666;9.160;2023-05-16T03:23:49;4.83;;;4.37;;
12770;SDS011;6449;47.666;9.160;2023-05-16T03:28:42;4.50;;;4.10;;
12770;SDS011;6449;47.666;9.160;2023-05-16T03:33:36;4.80;;;4.40;;
12770;SDS011;6449;47.666;9.160;2023-05-16T03:38:30;4.67;;;4.27;;
12770;SDS011;6449;47.666;9.160;2023-05-16T03:43:24;5.90;;;5.00;;
12770;SDS011;6449;47.666;9.160;2023-05-16T03:48:17;4.70;;;4.30;;
12770;SDS011;6449;47.666;9.160;2023-05-16T03:53:11;4.97;;;4.57;;
12770;SDS011;6449;47.666;9.160;2023-05-16T03:58:05;4.77;;;4.37;;
12770;SDS011;6449;47.666;9.160;2023-05-16T04:02:58;4.97;;;4.40;;
12770;SDS011;6449;47.666;9.160;2023-05-16T04:07:52;6.10;;;5.50;;
12770;SDS011;6449;47.666;9.160;2023-05-16T04:12:45;6.13;;;5.53;;
12770;SDS011;6449;47.666;9.160;2023-05-16T04:17:40;5.43;;;4.93;;
12770;SDS011;6449;47.666;9.160;2023-05-16T04:22:33;8.23;;;5.03;;
12770;SDS011;6449;47.666;9.160;2023-05-16T04:27:27;6.03;;;5.53;;
12770;SDS011;6449;47.666;9.160;2023-05-16T04:32:20;6.20;;;5.60;;
12770;SDS011;6449;47.666;9.160;2023-05-16T04:37:15;6.47;;;5.87;;
12770;SDS011;6449;47.666;9.160;2023-05-16T04:42:09;7.87;;;6.03;;
12770;SDS011;6449;47.666;9.160;2023-05-16T04:47:02;6.63;;;5.37;;
12770;SDS011;6449;47.666;9.160;2023-05-16T04:51:56;6.47;;;5.30;;
12770;SDS011;6449;47.666;9.160;2023-05-16T04:56:51;5.50;;;4.97;;
12770;SDS011;6449;47.666;9.160;2023-05-16T05:01:44;4.93;;;4.53;;
12770;SDS011;6449;47.666;9.160;2023-05-16T05:06:37;5.93;;;4.83;;
12770;SDS011;6449;47.666;9.160;2023-05-16T05:11:31;5.80;;;5.20;;
12770;SDS011;6449;47.666;9.160;2023-05-16T05:16:26;5.87;;;5.30;;
12770;SDS011;6449;47.666;9.160;2023-05-16T05:21:19;5.07;;;4.67;;
12770;SDS011;6449;47.666;9.160;2023-05-16T05:26:15;6.27;;;5.77;;
12770;SDS011;6449;47.666;9.160;2023-05-16T05:31:09;7.23;;;6.50;;
12770;SDS011;6449;47.666;9.160;2023-05-16T05:36:04;8.63;;;7.73;;
12770;SDS011;6449;47.666;9.160;2023-05-16T05:40:58;11.40;;;10.20;;
12770;SDS011;6449;47.666;9.160;2023-05-16T05:45:51;15.70;;;13.30;;
12770;SDS011;6449;47.666;9.160;2023-05-16T05:50:45;12.63;;;11.27;;
12770;SDS011;6449;47.666;9.160;2023-05-16T05:55:40;15.23;;;13.63;;
12770;SDS011;6449;47.666;9.160;2023-05-16T06:00:33;15.47;;;13.90;;
12770;SDS011;6449;47.666;9.160;2023-05-16T06:05:26;16.80;;;15.10;;
12770;SDS011;6449;47.666;9.160;2023-05-16T06:10:20;17.60;;;15.60;;
12770;SDS011;6449;47.666;9.160;2023-05-16T06:15:15;17.50;;;15.27;;
12770;SDS011;6449;47.666;9.160;2023-05-16T06:20:09;24.83;;;17.70;;
12770;SDS011;6449;47.666;9.160;2023-05-16T06:25:03;23.73;;;19.80;;
12770;SDS011;6449;47.666;9.160;2023-05-16T06:29:57;25.13;;;20.10;;
12770;SDS011;6449;47.666;9.160;2023-05-16T06:34:52;29.37;;;20.37;;
12770;SDS011;6449;47.666;9.160;2023-05-16T06:39:46;26.97;;;22.40;;
12770;SDS011;6449;47.666;9.160;2023-05-16T06:44:39;27.90;;;21.77;;
12770;SDS011;6449;47.666;9.160;2023-05-16T06:49:32;22.63;;;19.20;;
12770;SDS011;6449;47.666;9.160;2023-05-16T06:54:27;27.17;;;21.23;;
12770;SDS011;6449;47.666;9.160;2023-05-16T06:59:21;27.13;;;22.37;;
12770;SDS011;6449;47.666;9.160;2023-05-16T07:04:15;29.20;;;22.80;;
12770;SDS011;6449;47.666;9.160;2023-05-16T07:09:09;27.53;;;21.77;;
12770;SDS011;6449;47.666;9.160;2023-05-16T07:14:03;24.83;;;20.67;;
12770;SDS011;6449;47.666;9.160;2023-05-16T07:18:57;25.33;;;20.57;;
12770;SDS011;6449;47.666;9.160;2023-05-16T07:23:50;23.70;;;19.70;;
12770;SDS011;6449;47.666;9.160;2023-05-16T07:28:44;22.60;;;18.93;;
12770;SDS011;6449;47.666;9.160;2023-05-16T07:33:38;23.13;;;18.80;;
12770;SDS011;6449;47.666;9.160;2023-05-16T07:38:32;21.67;;;18.30;;
12770;SDS011;6449;47.666;9.160;2023-05-16T07:43:25;22.27;;;18.43;;
12770;SDS011;6449;47.666;9.160;2023-05-16T07:48:20;20.13;;;17.83;;
12770;SDS011;6449;47.666;9.160;2023-05-16T07:53:15;22.97;;;17.50;;
12770;SDS011;6449;47.666;9.160;2023-05-16T07:58:08;19.97;;;17.17;;
12770;SDS011;6449;47.666;9.160;2023-05-16T08:03:02;20.43;;;17.87;;
12770;SDS011;6449;47.666;9.160;2023-05-16T08:07:57;21.73;;;16.87;;
12770;SDS011;6449;47.666;9.160;2023-05-16T08:12:51;19.77;;;17.70;;
12770;SDS011;6449;47.666;9.160;2023-05-16T08:17:45;20.97;;;17.27;;
12770;SDS011;6449;47.666;9.160;2023-05-16T08:22:38;19.57;;;17.43;;
12770;SDS011;6449;47.666;9.160;2023-05-16T08:27:31;20.47;;;16.50;;
12770;SDS011;6449;47.666;9.160;2023-05-16T08:32:26;16.67;;;14.87;;
12770;SDS011;6449;47.666;9.160;2023-05-16T08:37:20;18.03;;;15.37;;
12770;SDS011;6449;47.666;9.160;2023-05-16T08:42:13;15.73;;;14.13;;
12770;SDS011;6449;47.666;9.160;2023-05-16T08:47:10;17.07;;;15.30;;
12770;SDS011;6449;47.666;9.160;2023-05-16T08:52:10;18.40;;;14.70;;
12770;SDS011;6449;47.666;9.160;2023-05-16T08:57:05;14.23;;;12.83;;
12770;SDS011;6449;47.666;9.160;2023-05-16T09:02:01;15.03;;;13.00;;
12770;SDS011;6449;47.666;9.160;2023-05-16T09:06:54;15.27;;;13.13;;
12770;SDS011;6449;47.666;9.160;2023-05-16T09:11:49;14.13;;;12.63;;
12770;SDS011;6449;47.666;9.160;2023-05-16T09:16:43;16.73;;;13.83;;
12770;SDS011;6449;47.666;9.160;2023-05-16T09:21:54;17.60;;;15.27;;
12770;SDS011;6449;47.666;9.160;2023-05-16T09:26:49;18.77;;;15.17;;
12770;SDS011;6449;47.666;9.160;2023-05-16T09:31:43;18.63;;;16.27;;
12770;SDS011;6449;47.666;9.160;2023-05-16T09:36:36;20.50;;;17.17;;
12770;SDS011;6449;47.666;9.160;2023-05-16T09:41:33;21.83;;;18.30;;
12770;SDS011;6449;47.666;9.160;2023-05-16T09:46:28;21.43;;;19.13;;
12770;SDS011;6449;47.666;9.160;2023-05-16T09:51:25;26.03;;;20.37;;
12770;SDS011;6449;47.666;9.160;2023-05-16T09:56:18;25.27;;;22.13;;
12770;SDS011;6449;47.666;9.160;2023-05-16T10:01:12;28.10;;;23.67;;
12770;SDS011;6449;47.666;9.160;2023-05-16T10:06:07;29.40;;;23.67;;
12770;SDS011;6449;47.666;9.160;2023-05-16T10:11:04;33.53;;;25.33;;
12770;SDS011;6449;47.666;9.160;2023-05-16T10:15:59;30.37;;;24.63;;
12770;SDS011;6449;47.666;9.160;2023-05-16T10:21:00;29.77;;;25.67;;
12770;SDS011;6449;47.666;9.160;2023-05-16T10:26:02;31.13;;;26.27;;
12770;SDS011;6449;47.666;9.160;2023-05-16T10:30:57;31.33;;;26.50;;
12770;SDS011;6449;47.666;9.160;2023-05-16T10:35:54;34.27;;;27.90;;
12770;SDS011;6449;47.666;9.160;2023-05-16T10:40:49;35.07;;;28.87;;
12770;SDS011;6449;47.666;9.160;2023-05-16T10:45:45;34.37;;;28.07;;
12770;SDS011;6449;47.666;9.160;2023-05-16T10:50:47;34.83;;;28.30;;
12770;SDS011;6449;47.666;9.160;2023-05-16T10:55:47;39.10;;;30.60;;
12770;SDS011;6449;47.666;9.160;2023-05-16T11:01:17;35.63;;;28.83;;
12770;SDS011;6449;47.666;9.160;2023-05-16T11:06:15;34.57;;;27.60;;
12770;SDS011;6449;47.666;9.160;2023-05-16T11:16:34;35.37;;;27.00;;
12770;SDS011;6449;47.666;9.160;2023-05-16T11:27:02;28.53;;;24.13;;
12770;SDS011;6449;47.666;9.160;2023-05-16T11:31:58;29.97;;;23.90;;
12770;SDS011;6449;47.666;9.160;2023-05-16T11:36:53;30.93;;;23.73;;
12770;SDS011;6449;47.666;9.160;2023-05-16T11:41:48;24.33;;;21.33;;
12770;SDS011;6449;47.666;9.160;2023-05-16T11:46:41;28.90;;;23.43;;
12770;SDS011;6449;47.666;9.160;2023-05-16T11:51:37;28.20;;;23.00;;
12770;SDS011;6449;47.666;9.160;2023-05-16T11:56:33;26.30;;;21.33;;
12770;SDS011;6449;47.666;9.160;2023-05-16T12:01:31;24.47;;;20.93;;
12770;SDS011;6449;47.666;9.160;2023-05-16T12:06:26;19.87;;;17.43;;
12770;SDS011;6449;47.666;9.160;2023-05-16T12:11:23;21.20;;;18.17;;
12770;SDS011;6449;47.666;9.160;2023-05-16T12:16:16;15.43;;;13.83;;
12770;SDS011;6449;47.666;9.160;2023-05-16T12:21:11;16.50;;;14.67;;
12770;SDS011;6449;47.666;9.160;2023-05-16T12:26:05;17.73;;;15.90;;
12770;SDS011;6449;47.666;9.160;2023-05-16T12:31:00;16.97;;;15.13;;
12770;SDS011;6449;47.666;9.160;2023-05-16T12:35:53;16.90;;;14.93;;
12770;SDS011;6449;47.666;9.160;2023-05-16T12:40:47;13.87;;;12.23;;
12770;SDS011;6449;47.666;9.160;2023-05-16T12:45:41;15.00;;;12.83;;
12770;SDS011;6449;47.666;9.160;2023-05-16T12:50:44;12.63;;;11.33;;
12770;SDS011;6449;47.666;9.160;2023-05-16T12:55:39;14.17;;;12.80;;
12770;SDS011;6449;47.666;9.160;2023-05-16T13:00:33;14.23;;;12.83;;
12770;SDS011;6449;47.666;9.160;2023-05-16T13:05:27;13.50;;;12.10;;
12770;SDS011;6449;47.666;9.160;2023-05-16T13:10:22;12.93;;;11.63;;
12770;SDS011;6449;47.666;9.160;2023-05-16T13:15:16;14.60;;;13.10;;
12770;SDS011;6449;47.666;9.160;2023-05-16T13:20:10;13.33;;;11.93;;
12770;SDS011;6449;47.666;9.160;2023-05-16T13:25:05;14.17;;;12.87;;
12770;SDS011;6449;47.666;9.160;2023-05-16T13:30:02;13.67;;;12.27;;
12770;SDS011;6449;47.666;9.160;2023-05-16T13:34:56;12.23;;;11.10;;
12770;SDS011;6449;47.666;9.160;2023-05-16T13:39:49;13.23;;;11.93;;
12770;SDS011;6449;47.666;9.160;2023-05-16T13:44:44;13.27;;;11.87;;
12770;SDS011;6449;47.666;9.160;2023-05-16T13:49:39;13.57;;;12.17;;
12770;SDS011;6449;47.666;9.160;2023-05-16T13:54:33;12.80;;;11.00;;
12770;SDS011;6449;47.666;9.160;2023-05-16T13:59:26;13.03;;;11.70;;
12770;SDS011;6449;47.666;9.160;2023-05-16T14:04:41;14.67;;;13.10;;
12770;SDS011;6449;47.666;9.160;2023-05-16T14:09:34;14.93;;;12.73;;
12770;SDS011;6449;47.666;9.160;2023-05-16T14:14:29;14.27;;;12.20;;
12770;SDS011;6449;47.666;9.160;2023-05-16T14:19:23;16.40;;;14.57;;
12770;SDS011;6449;47.666;9.160;2023-05-16T14:24:18;15.50;;;13.83;;
12770;SDS011;6449;47.666;9.160;2023-05-16T14:29:11;15.00;;;13.40;;
12770;SDS011;6449;47.666;9.160;2023-05-16T14:34:04;14.70;;;12.97;;
12770;SDS011;6449;47.666;9.160;2023-05-16T14:38:58;14.43;;;13.03;;
12770;SDS011;6449;47.666;9.160;2023-05-16T14:43:53;15.27;;;13.67;;
12770;SDS011;6449;47.666;9.160;2023-05-16T14:48:47;14.37;;;12.90;;
12770;SDS011;6449;47.666;9.160;2023-05-16T14:53:41;17.50;;;14.60;;
12770;SDS011;6449;47.666;9.160;2023-05-16T14:58:37;15.20;;;13.30;;
12770;SDS011;6449;47.666;9.160;2023-05-16T15:03:32;16.10;;;14.50;;
12770;SDS011;6449;47.666;9.160;2023-05-16T15:08:41;18.37;;;15.50;;
12770;SDS011;6449;47.666;9.160;2023-05-16T15:13:34;15.17;;;13.13;;
12770;SDS011;6449;47.666;9.160;2023-05-16T15:18:28;11.70;;;9.00;;
12770;SDS011;6449;47.666;9.160;2023-05-16T15:23:22;9.30;;;8.40;;
12770;SDS011;6449;47.666;9.160;2023-05-16T15:28:16;8.47;;;7.57;;
12770;SDS011;6449;47.666;9.160;2023-05-16T15:33:12;7.43;;;6.27;;
12770;SDS011;6449;47.666;9.160;2023-05-16T15:38:06;5.20;;;4.70;;
12770;SDS011;6449;47.666;9.160;2023-05-16T15:43:01;5.40;;;4.83;;
12770;SDS011;6449;47.666;9.160;2023-05-16T15:47:54;4.67;;;4.03;;
12770;SDS011;6449;47.666;9.160;2023-05-16T15:52:48;5.57;;;4.50;;
12770;SDS011;6449;47.666;9.160;2023-05-16T15:57:41;4.87;;;4.47;;
12770;SDS011;6449;47.666;9.160;2023-05-16T16:02:36;5.10;;;4.60;;
12770;SDS011;6449;47.666;9.160;2023-05-16T16:07:30;4.80;;;4.40;;
12770;SDS011;6449;47.666;9.160;2023-05-16T16:12:23;5.27;;;4.80;;
12770;SDS011;6449;47.666;9.160;2023-05-16T16:17:17;7.43;;;5.67;;
12770;SDS011;6449;47.666;9.160;2023-05-16T16:22:12;6.53;;;5.90;;
12770;SDS011;6449;47.666;9.160;2023-05-16T16:27:07;8.33;;;6.37;;
12770;SDS011;6449;47.666;9.160;2023-05-16T16:32:00;6.90;;;6.20;;
12770;SDS011;6449;47.666;9.160;2023-05-16T16:36:53;6.33;;;5.73;;
12770;SDS011;6449;47.666;9.160;2023-05-16T16:41:48;6.13;;;5.53;;
12770;SDS011;6449;47.666;9.160;2023-05-16T16:46:41;7.10;;;5.30;;
12770;SDS011;6449;47.666;9.160;2023-05-16T16:51:35;6.60;;;6.00;;
12770;SDS011;6449;47.666;9.160;2023-05-16T16:56:28;8.57;;;7.00;;
12770;SDS011;6449;47.666;9.160;2023-05-16T17:01:23;7.30;;;6.57;;
12770;SDS011;6449;47.666;9.160;2023-05-16T17:06:20;8.03;;;6.97;;
12770;SDS011;6449;47.666;9.160;2023-05-16T17:11:13;9.57;;;8.00;;
12770;SDS011;6449;47.666;9.160;2023-05-16T17:16:13;7.27;;;6.57;;
12770;SDS011;6449;47.666;9.160;2023-05-16T17:21:08;8.53;;;7.73;;
12770;SDS011;6449;47.666;9.160;2023-05-16T17:26:03;9.33;;;7.70;;
12770;SDS011;6449;47.666;9.160;2023-05-16T17:30:57;8.47;;;7.67;;
12770;SDS011;6449;47.666;9.160;2023-05-16T17:35:51;8.87;;;7.70;;
12770;SDS011;6449;47.666;9.160;2023-05-16T17:40:45;7.23;;;6.53;;
12770;SDS011;6449;47.666;9.160;2023-05-16T17:45:39;7.43;;;6.17;;
12770;SDS011;6449;47.666;9.160;2023-05-16T17:50:32;5.63;;;4.93;;
12770;SDS011;6449;47.666;9.160;2023-05-16T17:55:27;5.47;;;4.80;;
12770;SDS011;6449;47.666;9.160;2023-05-16T18:00:22;8.83;;;4.73;;
12770;SDS011;6449;47.666;9.160;2023-05-16T18:05:16;9.73;;;4.60;;
12770;SDS011;6449;47.666;9.160;2023-05-16T18:10:09;9.33;;;4.20;;
12770;SDS011;6449;47.666;9.160;2023-05-16T18:15:04;5.43;;;3.20;;
12770;SDS011;6449;47.666;9.160;2023-05-16T18:20:00;4.53;;;3.07;;
12770;SDS011;6449;47.666;9.160;2023-05-16T18:24:59;4.77;;;3.00;;
12770;SDS011;6449;47.666;9.160;2023-05-16T18:29:53;3.43;;;2.97;;
12770;SDS011;6449;47.666;9.160;2023-05-16T18:34:46;3.70;;;3.07;;
12770;SDS011;6449;47.666;9.160;2023-05-16T18:39:42;3.30;;;2.87;;
12770;SDS011;6449;47.666;9.160;2023-05-16T18:44:35;3.10;;;2.80;;
12770;SDS011;6449;47.666;9.160;2023-05-16T18:49:28;3.37;;;2.50;;
12770;SDS011;6449;47.666;9.160;2023-05-16T18:54:23;4.97;;;2.97;;
12770;SDS011;6449;47.666;9.160;2023-05-16T18:59:18;4.73;;;3.20;;
12770;SDS011;6449;47.666;9.160;2023-05-16T19:04:11;7.20;;;2.83;;
12770;SDS011;6449;47.666;9.160;2023-05-16T19:09:05;3.73;;;3.13;;
12770;SDS011;6449;47.666;9.160;2023-05-16T19:13:59;3.87;;;2.70;;
12770;SDS011;6449;47.666;9.160;2023-05-16T19:18:54;4.27;;;2.80;;
12770;SDS011;6449;47.666;9.160;2023-05-16T19:23:48;5.00;;;2.63;;
12770;SDS011;6449;47.666;9.160;2023-05-16T19:28:41;3.60;;;3.13;;
12770;SDS011;6449;47.666;9.160;2023-05-16T19:33:35;6.77;;;3.60;;
12770;SDS011;6449;47.666;9.160;2023-05-16T19:38:30;4.13;;;3.00;;
12770;SDS011;6449;47.666;9.160;2023-05-16T19:43:23;3.97;;;2.83;;
12770;SDS011;6449;47.666;9.160;2023-05-16T19:48:17;3.57;;;2.80;;
12770;SDS011;6449;47.666;9.160;2023-05-16T19:53:11;6.20;;;3.13;;
12770;SDS011;6449;47.666;9.160;2023-05-16T19:58:05;4.77;;;2.57;;
12770;SDS011;6449;47.666;9.160;2023-05-16T20:02:59;6.53;;;2.97;;
12770;SDS011;6449;47.666;9.160;2023-05-16T20:07:52;5.43;;;3.07;;
12770;SDS011;6449;47.666;9.160;2023-05-16T20:12:46;4.77;;;2.40;;
12770;SDS011;6449;47.666;9.160;2023-05-16T20:17:41;3.53;;;1.77;;
12770;SDS011;6449;47.666;9.160;2023-05-16T20:22:34;8.23;;;2.53;;
12770;SDS011;6449;47.666;9.160;2023-05-16T20:27:31;4.43;;;2.17;;
12770;SDS011;6449;47.666;9.160;2023-05-16T20:32:25;3.97;;;2.30;;
12770;SDS011;6449;47.666;9.160;2023-05-16T20:37:20;2.73;;;1.90;;
12770;SDS011;6449;47.666;9.160;2023-05-16T20:42:16;3.83;;;2.00;;
12770;SDS011;6449;47.666;9.160;2023-05-16T20:47:10;6.87;;;2.40;;
12770;SDS011;6449;47.666;9.160;2023-05-16T20:52:04;5.83;;;2.53;;
12770;SDS011;6449;47.666;9.160;2023-05-16T20:56:59;7.23;;;2.63;;
12770;SDS011;6449;47.666;9.160;2023-05-16T21:01:53;5.50;;;2.50;;
12770;SDS011;6449;47.666;9.160;2023-05-16T21:06:47;3.53;;;2.03;;
12770;SDS011;6449;47.666;9.160;2023-05-16T21:11:41;6.07;;;2.37;;
12770;SDS011;6449;47.666;9.160;2023-05-16T21:16:35;2.63;;;1.70;;
12770;SDS011;6449;47.666;9.160;2023-05-16T21:21:29;6.17;;;2.10;;
12770;SDS011;6449;47.666;9.160;2023-05-16T21:26:22;4.83;;;1.90;;
12770;SDS011;6449;47.666;9.160;2023-05-16T21:31:16;4.80;;;1.70;;
12770;SDS011;6449;47.666;9.160;2023-05-16T21:36:11;4.47;;;2.20;;
12770;SDS011;6449;47.666;9.160;2023-05-16T21:41:04;4.90;;;2.00;;
12770;SDS011;6449;47.666;9.160;2023-05-16T21:45:57;6.70;;;2.03;;
12770;SDS011;6449;47.666;9.160;2023-05-16T21:50:51;11.00;;;2.30;;
12770;SDS011;6449;47.666;9.160;2023-05-16T21:55:48;7.00;;;2.10;;
12770;SDS011;6449;47.666;9.160;2023-05-16T22:00:42;5.23;;;2.00;;
12770;SDS011;6449;47.666;9.160;2023-05-16T22:05:35;5.67;;;2.47;;
12770;SDS011;6449;47.666;9.160;2023-05-16T22:10:29;3.87;;;1.63;;
12770;SDS011;6449;47.666;9.160;2023-05-16T22:15:23;3.00;;;1.87;;
12770;SDS011;6449;47.666;9.160;2023-05-16T22:20:17;3.47;;;2.10;;
12770;SDS011;6449;47.666;9.160;2023-05-16T22:25:11;7.20;;;2.10;;
12770;SDS011;6449;47.666;9.160;2023-05-16T22:30:06;4.60;;;1.90;;
12770;SDS011;6449;47.666;9.160;2023-05-16T22:35:02;4.40;;;2.03;;
12770;SDS011;6449;47.666;9.160;2023-05-16T22:39:55;4.07;;;1.80;;
12770;SDS011;6449;47.666;9.160;2023-05-16T22:44:49;6.67;;;2.30;;
12770;SDS011;6449;47.666;9.160;2023-05-16T22:49:42;3.10;;;1.97;;
12770;SDS011;6449;47.666;9.160;2023-05-16T22:54:37;5.13;;;2.27;;
12770;SDS011;6449;47.666;9.160;2023-05-16T22:59:31;5.97;;;2.30;;
12770;SDS011;6449;47.666;9.160;2023-05-16T23:04:25;6.83;;;2.13;;
12770;SDS011;6449;47.666;9.160;2023-05-16T23:09:18;3.20;;;1.90;;
12770;SDS011;6449;47.666;9.160;2023-05-16T23:14:16;4.53;;;2.20;;
12770;SDS011;6449;47.666;9.160;2023-05-16T23:19:09;3.27;;;2.10;;
12770;SDS011;6449;47.666;9.160;2023-05-16T23:24:02;4.27;;;2.00;;
12770;SDS011;6449;47.666;9.160;2023-05-16T23:28:56;7.43;;;2.17;;
12770;SDS011;6449;47.666;9.160;2023-05-16T23:33:51;2.77;;;1.80;;
12770;SDS011;6449;47.666;9.160;2023-05-16T23:38:44;3.73;;;1.90;;
12770;SDS011;6449;47.666;9.160;2023-05-16T23:43:38;2.90;;;1.60;;
12770;SDS011;6449;47.666;9.160;2023-05-16T23:48:31;2.63;;;1.80;;
12770;SDS011;6449;47.666;9.160;2023-05-16T23:53:28;3.07;;;1.53;;
12770;SDS011;6449;47.666;9.160;2023-05-16T23:58:23;7.03;;;1.90;;
